sensor_id;sensor_type;location;lat;lon;timestamp;pressure;altitude;pressure_sealevel;temperature;humidity
43814;BME280;29669;55.706;37.656;2022-10-12T00:00:27;100196.16;;;5.20;68.86
43814;BME280;29669;55.706;37.656;2022-10-12T00:03:15;100198.63;;;5.22;68.99
43814;BME280;29669;55.706;37.656;2022-10-12T00:06:07;100192.88;;;5.29;68.77
43814;BME280;29669;55.706;37.656;2022-10-12T00:08:55;100198.72;;;5.31;68.49
43814;BME280;29669;55.706;37.656;2022-10-12T00:11:43;100191.13;;;5.30;68.34
43814;BME280;29669;55.706;37.656;2022-10-12T00:14:35;100201.06;;;5.23;68.53
43814;BME280;29669;55.706;37.656;2022-10-12T00:17:23;100194.75;;;5.16;68.56
43814;BME280;29669;55.706;37.656;2022-10-12T00:20:11;100189.50;;;5.18;68.91
43814;BME280;29669;55.706;37.656;2022-10-12T00:22:59;100189.84;;;5.13;68.97
43814;BME280;29669;55.706;37.656;2022-10-12T00:25:47;100190.19;;;5.09;69.04
43814;BME280;29669;55.706;37.656;2022-10-12T00:28:35;100188.91;;;5.14;69.46
43814;BME280;29669;55.706;37.656;2022-10-12T00:31:23;100186.44;;;5.24;69.54
43814;BME280;29669;55.706;37.656;2022-10-12T00:34:11;100188.66;;;5.28;69.28
43814;BME280;29669;55.706;37.656;2022-10-12T00:36:59;100193.56;;;5.31;69.52
43814;BME280;29669;55.706;37.656;2022-10-12T00:39:47;100190.31;;;5.29;69.49
43814;BME280;29669;55.706;37.656;2022-10-12T00:42:35;100188.53;;;5.19;69.43
43814;BME280;29669;55.706;37.656;2022-10-12T00:45:23;100180.25;;;5.15;69.59
43814;BME280;29669;55.706;37.656;2022-10-12T00:48:12;100184.81;;;5.12;69.50
43814;BME280;29669;55.706;37.656;2022-10-12T00:51:01;100180.13;;;5.06;69.52
43814;BME280;29669;55.706;37.656;2022-10-12T00:53:54;100176.84;;;5.04;69.51
43814;BME280;29669;55.706;37.656;2022-10-12T00:56:46;100180.13;;;5.06;69.30
43814;BME280;29669;55.706;37.656;2022-10-12T01:00:03;100175.56;;;4.98;68.94
43814;BME280;29669;55.706;37.656;2022-10-12T01:02:53;100174.66;;;4.88;69.33
43814;BME280;29669;55.706;37.656;2022-10-12T01:05:42;100169.97;;;4.82;69.63
43814;BME280;29669;55.706;37.656;2022-10-12T01:08:30;100170.44;;;4.76;69.81
43814;BME280;29669;55.706;37.656;2022-10-12T01:11:18;100173.47;;;4.70;69.92
43814;BME280;29669;55.706;37.656;2022-10-12T01:14:07;100163.75;;;4.62;70.06
43814;BME280;29669;55.706;37.656;2022-10-12T01:17:04;100164.00;;;4.59;69.92
43814;BME280;29669;55.706;37.656;2022-10-12T01:20:14;100166.06;;;4.54;70.01
43814;BME280;29669;55.706;37.656;2022-10-12T01:29:38;100153.59;;;4.39;70.13
43814;BME280;29669;55.706;37.656;2022-10-12T01:35:41;100159.03;;;4.23;69.73
43814;BME280;29669;55.706;37.656;2022-10-12T01:38:51;100153.06;;;4.23;70.02
43814;BME280;29669;55.706;37.656;2022-10-12T01:41:46;100157.28;;;4.24;69.99
43814;BME280;29669;55.706;37.656;2022-10-12T01:44:35;100159.75;;;4.25;69.83
43814;BME280;29669;55.706;37.656;2022-10-12T01:47:29;100148.78;;;4.34;69.88
43814;BME280;29669;55.706;37.656;2022-10-12T01:50:20;100153.59;;;4.50;69.67
43814;BME280;29669;55.706;37.656;2022-10-12T01:56:18;100153.84;;;4.58;69.34
43814;BME280;29669;55.706;37.656;2022-10-12T01:59:19;100131.94;;;4.41;69.44
43814;BME280;29669;55.706;37.656;2022-10-12T02:02:24;100137.91;;;4.42;69.68
43814;BME280;29669;55.706;37.656;2022-10-12T02:08:30;100141.19;;;4.33;70.21
43814;BME280;29669;55.706;37.656;2022-10-12T02:11:22;100136.63;;;4.25;70.30
43814;BME280;29669;55.706;37.656;2022-10-12T02:14:19;100143.72;;;4.22;70.33
43814;BME280;29669;55.706;37.656;2022-10-12T02:17:10;100146.78;;;4.27;70.40
43814;BME280;29669;55.706;37.656;2022-10-12T02:20:00;100136.97;;;4.32;70.37
43814;BME280;29669;55.706;37.656;2022-10-12T02:22:50;100142.34;;;4.29;70.15
43814;BME280;29669;55.706;37.656;2022-10-12T02:25:39;100141.03;;;4.23;70.33
43814;BME280;29669;55.706;37.656;2022-10-12T02:28:29;100145.03;;;4.27;70.37
43814;BME280;29669;55.706;37.656;2022-10-12T02:31:46;100137.47;;;4.37;70.17
43814;BME280;29669;55.706;37.656;2022-10-12T02:34:52;100134.50;;;4.30;70.35
43814;BME280;29669;55.706;37.656;2022-10-12T02:37:45;100125.97;;;4.30;70.69
43814;BME280;29669;55.706;37.656;2022-10-12T02:40:50;100126.94;;;4.40;70.72
43814;BME280;29669;55.706;37.656;2022-10-12T02:43:51;100128.09;;;4.47;70.61
43814;BME280;29669;55.706;37.656;2022-10-12T02:46:43;100126.59;;;4.55;70.78
43814;BME280;29669;55.706;37.656;2022-10-12T02:49:34;100128.94;;;4.58;70.60
43814;BME280;29669;55.706;37.656;2022-10-12T02:52:23;100129.06;;;4.57;70.76
43814;BME280;29669;55.706;37.656;2022-10-12T02:55:11;100124.94;;;4.54;70.59
43814;BME280;29669;55.706;37.656;2022-10-12T02:57:59;100127.44;;;4.56;70.76
43814;BME280;29669;55.706;37.656;2022-10-12T03:00:47;100124.84;;;4.67;70.33
43814;BME280;29669;55.706;37.656;2022-10-12T03:03:35;100124.28;;;4.63;70.66
43814;BME280;29669;55.706;37.656;2022-10-12T03:06:23;100134.19;;;4.57;70.69
43814;BME280;29669;55.706;37.656;2022-10-12T03:09:10;100132.91;;;4.51;70.87
43814;BME280;29669;55.706;37.656;2022-10-12T03:11:59;100135.72;;;4.48;71.25
43814;BME280;29669;55.706;37.656;2022-10-12T03:14:46;100133.84;;;4.50;71.11
43814;BME280;29669;55.706;37.656;2022-10-12T03:17:34;100134.53;;;4.52;71.48
43814;BME280;29669;55.706;37.656;2022-10-12T03:20:22;100129.06;;;4.57;71.47
43814;BME280;29669;55.706;37.656;2022-10-12T03:23:10;100128.72;;;4.61;71.24
43814;BME280;29669;55.706;37.656;2022-10-12T03:25:58;100118.31;;;4.63;71.42
43814;BME280;29669;55.706;37.656;2022-10-12T03:28:46;100122.28;;;4.67;71.22
43814;BME280;29669;55.706;37.656;2022-10-12T03:31:33;100118.06;;;4.66;71.23
43814;BME280;29669;55.706;37.656;2022-10-12T03:34:21;100128.13;;;4.69;71.25
43814;BME280;29669;55.706;37.656;2022-10-12T03:37:09;100130.69;;;4.80;70.95
43814;BME280;29669;55.706;37.656;2022-10-12T03:39:57;100123.22;;;4.88;71.06
43814;BME280;29669;55.706;37.656;2022-10-12T03:42:45;100134.09;;;4.92;70.70
43814;BME280;29669;55.706;37.656;2022-10-12T03:45:33;100128.34;;;4.99;70.54
43814;BME280;29669;55.706;37.656;2022-10-12T03:48:21;100133.69;;;5.07;70.51
43814;BME280;29669;55.706;37.656;2022-10-12T03:51:09;100132.44;;;5.13;70.53
43814;BME280;29669;55.706;37.656;2022-10-12T03:53:57;100124.47;;;5.16;70.18
43814;BME280;29669;55.706;37.656;2022-10-12T03:56:44;100125.28;;;5.16;69.92
43814;BME280;29669;55.706;37.656;2022-10-12T03:59:32;100124.81;;;5.11;69.50
43814;BME280;29669;55.706;37.656;2022-10-12T04:02:20;100120.25;;;5.04;69.61
43814;BME280;29669;55.706;37.656;2022-10-12T04:05:08;100119.47;;;5.03;69.82
43814;BME280;29669;55.706;37.656;2022-10-12T04:07:57;100124.69;;;5.02;69.67
43814;BME280;29669;55.706;37.656;2022-10-12T04:10:44;100121.53;;;5.09;69.80
43814;BME280;29669;55.706;37.656;2022-10-12T04:13:32;100125.16;;;5.18;69.54
43814;BME280;29669;55.706;37.656;2022-10-12T04:16:20;100113.09;;;5.29;69.32
43814;BME280;29669;55.706;37.656;2022-10-12T04:19:13;100118.66;;;5.45;69.07
43814;BME280;29669;55.706;37.656;2022-10-12T04:22:01;100122.34;;;5.63;68.68
43814;BME280;29669;55.706;37.656;2022-10-12T04:24:49;100114.31;;;5.78;68.27
43814;BME280;29669;55.706;37.656;2022-10-12T04:27:36;100122.59;;;5.92;68.23
43814;BME280;29669;55.706;37.656;2022-10-12T04:30:25;100124.72;;;6.08;67.99
43814;BME280;29669;55.706;37.656;2022-10-12T04:33:13;100128.13;;;6.29;67.92
43814;BME280;29669;55.706;37.656;2022-10-12T04:36:01;100125.66;;;6.48;67.63
43814;BME280;29669;55.706;37.656;2022-10-12T04:38:49;100121.97;;;6.71;67.28
43814;BME280;29669;55.706;37.656;2022-10-12T04:41:37;100132.09;;;6.93;67.08
43814;BME280;29669;55.706;37.656;2022-10-12T04:44:26;100127.69;;;7.14;66.92
43814;BME280;29669;55.706;37.656;2022-10-12T04:47:19;100124.06;;;7.36;66.71
43814;BME280;29669;55.706;37.656;2022-10-12T04:50:07;100120.41;;;7.57;66.42
43814;BME280;29669;55.706;37.656;2022-10-12T04:52:55;100118.66;;;7.77;66.15
43814;BME280;29669;55.706;37.656;2022-10-12T04:55:43;100119.44;;;7.97;66.04
43814;BME280;29669;55.706;37.656;2022-10-12T04:58:31;100122.44;;;8.11;65.92
43814;BME280;29669;55.706;37.656;2022-10-12T05:01:19;100128.97;;;8.25;65.72
43814;BME280;29669;55.706;37.656;2022-10-12T05:04:07;100134.13;;;8.34;65.47
43814;BME280;29669;55.706;37.656;2022-10-12T05:06:55;100130.16;;;8.40;65.69
43814;BME280;29669;55.706;37.656;2022-10-12T05:09:43;100126.34;;;8.44;65.68
43814;BME280;29669;55.706;37.656;2022-10-12T05:12:30;100127.25;;;8.52;65.93
43814;BME280;29669;55.706;37.656;2022-10-12T05:15:19;100134.84;;;8.64;65.89
43814;BME280;29669;55.706;37.656;2022-10-12T05:18:07;100138.06;;;8.75;65.62
43814;BME280;29669;55.706;37.656;2022-10-12T05:20:55;100129.44;;;8.84;65.49
43814;BME280;29669;55.706;37.656;2022-10-12T05:23:43;100125.22;;;8.93;65.20
43814;BME280;29669;55.706;37.656;2022-10-12T05:26:31;100127.06;;;9.00;65.10
43814;BME280;29669;55.706;37.656;2022-10-12T05:29:19;100127.59;;;9.04;64.94
43814;BME280;29669;55.706;37.656;2022-10-12T05:32:07;100125.94;;;9.03;64.96
43814;BME280;29669;55.706;37.656;2022-10-12T05:34:55;100124.34;;;9.02;64.98
43814;BME280;29669;55.706;37.656;2022-10-12T05:37:43;100112.38;;;9.01;65.07
43814;BME280;29669;55.706;37.656;2022-10-12T05:40:31;100115.59;;;9.03;65.18
43814;BME280;29669;55.706;37.656;2022-10-12T05:43:19;100121.69;;;9.11;65.21
43814;BME280;29669;55.706;37.656;2022-10-12T05:46:07;100119.22;;;9.19;64.96
43814;BME280;29669;55.706;37.656;2022-10-12T05:49:01;100116.78;;;9.35;64.88
43814;BME280;29669;55.706;37.656;2022-10-12T05:51:49;100126.69;;;9.58;64.77
43814;BME280;29669;55.706;37.656;2022-10-12T05:54:36;100129.31;;;9.75;64.46
43814;BME280;29669;55.706;37.656;2022-10-12T05:57:25;100127.56;;;10.01;63.81
43814;BME280;29669;55.706;37.656;2022-10-12T06:00:13;100127.66;;;10.27;63.58
43814;BME280;29669;55.706;37.656;2022-10-12T06:03:01;100126.13;;;10.42;63.03
43814;BME280;29669;55.706;37.656;2022-10-12T06:05:49;100121.28;;;10.47;62.81
43814;BME280;29669;55.706;37.656;2022-10-12T06:08:37;100127.06;;;10.41;62.88
43814;BME280;29669;55.706;37.656;2022-10-12T06:11:25;100118.78;;;10.37;62.84
43814;BME280;29669;55.706;37.656;2022-10-12T06:14:16;100115.09;;;10.40;62.85
43814;BME280;29669;55.706;37.656;2022-10-12T06:17:04;100113.00;;;10.43;62.71
43814;BME280;29669;55.706;37.656;2022-10-12T06:19:52;100116.78;;;10.31;62.36
43814;BME280;29669;55.706;37.656;2022-10-12T06:22:40;100112.47;;;10.14;62.62
43814;BME280;29669;55.706;37.656;2022-10-12T06:25:28;100120.25;;;9.97;62.74
43814;BME280;29669;55.706;37.656;2022-10-12T06:28:17;100127.59;;;9.84;62.82
43814;BME280;29669;55.706;37.656;2022-10-12T06:31:06;100115.97;;;9.70;62.96
43814;BME280;29669;55.706;37.656;2022-10-12T06:33:54;100111.69;;;9.61;63.06
43814;BME280;29669;55.706;37.656;2022-10-12T06:36:42;100115.09;;;9.62;62.73
43814;BME280;29669;55.706;37.656;2022-10-12T06:39:30;100124.50;;;9.63;62.62
43814;BME280;29669;55.706;37.656;2022-10-12T06:42:18;100119.00;;;9.66;62.34
43814;BME280;29669;55.706;37.656;2022-10-12T06:45:09;100114.81;;;9.65;62.16
43814;BME280;29669;55.706;37.656;2022-10-12T06:47:57;100112.72;;;9.68;61.71
43814;BME280;29669;55.706;37.656;2022-10-12T06:50:45;100109.03;;;9.71;61.56
43814;BME280;29669;55.706;37.656;2022-10-12T06:53:33;100121.53;;;9.75;61.12
43814;BME280;29669;55.706;37.656;2022-10-12T06:56:21;100120.69;;;9.75;60.24
43814;BME280;29669;55.706;37.656;2022-10-12T06:59:12;100111.97;;;9.76;59.34
43814;BME280;29669;55.706;37.656;2022-10-12T07:02:00;100110.50;;;9.73;59.15
43814;BME280;29669;55.706;37.656;2022-10-12T07:04:52;100111.97;;;9.76;58.99
43814;BME280;29669;55.706;37.656;2022-10-12T07:07:40;100099.69;;;9.78;58.95
43814;BME280;29669;55.706;37.656;2022-10-12T07:10:28;100105.88;;;9.85;58.71
43814;BME280;29669;55.706;37.656;2022-10-12T07:13:16;100108.56;;;9.93;58.43
43814;BME280;29669;55.706;37.656;2022-10-12T07:16:04;100108.91;;;9.98;58.29
43814;BME280;29669;55.706;37.656;2022-10-12T07:18:52;100102.97;;;10.05;58.11
43814;BME280;29669;55.706;37.656;2022-10-12T07:21:40;100104.03;;;10.12;58.02
43814;BME280;29669;55.706;37.656;2022-10-12T07:24:28;100109.78;;;10.24;57.91
43814;BME280;29669;55.706;37.656;2022-10-12T07:27:22;100106.13;;;10.34;57.47
43814;BME280;29669;55.706;37.656;2022-10-12T07:30:11;100104.88;;;10.47;57.37
43814;BME280;29669;55.706;37.656;2022-10-12T07:32:59;100098.03;;;10.63;57.18
43814;BME280;29669;55.706;37.656;2022-10-12T07:35:56;100097.41;;;10.77;56.72
43814;BME280;29669;55.706;37.656;2022-10-12T07:39:01;100104.50;;;11.01;56.42
43814;BME280;29669;55.706;37.656;2022-10-12T07:41:50;100087.19;;;11.25;56.03
43814;BME280;29669;55.706;37.656;2022-10-12T07:44:37;100097.63;;;11.50;55.38
43814;BME280;29669;55.706;37.656;2022-10-12T07:47:25;100098.19;;;11.69;55.05
43814;BME280;29669;55.706;37.656;2022-10-12T07:50:14;100094.28;;;11.97;54.62
43814;BME280;29669;55.706;37.656;2022-10-12T07:53:02;100098.28;;;12.32;54.40
43814;BME280;29669;55.706;37.656;2022-10-12T07:55:50;100100.94;;;12.71;53.91
43814;BME280;29669;55.706;37.656;2022-10-12T07:58:38;100086.84;;;12.96;53.12
43814;BME280;29669;55.706;37.656;2022-10-12T08:01:28;100097.00;;;13.21;53.11
43814;BME280;29669;55.706;37.656;2022-10-12T08:04:16;100093.53;;;13.52;52.31
43814;BME280;29669;55.706;37.656;2022-10-12T08:07:04;100088.78;;;13.78;51.81
43814;BME280;29669;55.706;37.656;2022-10-12T08:09:52;100087.75;;;13.87;51.33
43814;BME280;29669;55.706;37.656;2022-10-12T08:12:40;100091.00;;;13.89;51.13
43814;BME280;29669;55.706;37.656;2022-10-12T08:15:28;100081.53;;;13.88;50.98
43814;BME280;29669;55.706;37.656;2022-10-12T08:18:16;100084.31;;;13.86;50.87
43814;BME280;29669;55.706;37.656;2022-10-12T08:21:05;100086.31;;;13.99;50.88
43814;BME280;29669;55.706;37.656;2022-10-12T08:23:54;100080.41;;;14.05;50.85
43814;BME280;29669;55.706;37.656;2022-10-12T08:26:42;100085.81;;;14.18;50.32
43814;BME280;29669;55.706;37.656;2022-10-12T08:29:30;100078.72;;;14.27;50.02
43814;BME280;29669;55.706;37.656;2022-10-12T08:32:17;100084.78;;;14.27;49.78
43814;BME280;29669;55.706;37.656;2022-10-12T08:35:06;100082.94;;;14.13;49.74
43814;BME280;29669;55.706;37.656;2022-10-12T08:37:53;100088.16;;;14.13;49.13
43814;BME280;29669;55.706;37.656;2022-10-12T08:43:58;100078.63;;;14.20;48.60
43814;BME280;29669;55.706;37.656;2022-10-12T08:47:15;100080.03;;;14.08;48.44
43814;BME280;29669;55.706;37.656;2022-10-12T08:50:06;100083.44;;;13.94;48.36
43814;BME280;29669;55.706;37.656;2022-10-12T08:53:12;100073.94;;;13.78;48.68
43814;BME280;29669;55.706;37.656;2022-10-12T08:56:02;100081.97;;;13.77;48.80
43814;BME280;29669;55.706;37.656;2022-10-12T08:58:51;100082.78;;;13.77;48.57
43814;BME280;29669;55.706;37.656;2022-10-12T09:01:59;100082.28;;;13.96;48.79
43814;BME280;29669;55.706;37.656;2022-10-12T09:07:41;100077.47;;;14.23;48.78
43814;BME280;29669;55.706;37.656;2022-10-12T09:10:45;100085.19;;;14.16;48.55
43814;BME280;29669;55.706;37.656;2022-10-12T09:13:46;100085.75;;;14.11;48.39
43814;BME280;29669;55.706;37.656;2022-10-12T09:16:42;100083.47;;;14.08;48.41
43814;BME280;29669;55.706;37.656;2022-10-12T09:19:37;100082.25;;;14.19;48.40
43814;BME280;29669;55.706;37.656;2022-10-12T09:22:28;100081.81;;;14.30;48.30
43814;BME280;29669;55.706;37.656;2022-10-12T09:25:24;100078.84;;;14.33;48.19
43814;BME280;29669;55.706;37.656;2022-10-12T09:28:38;100088.13;;;14.36;48.23
43814;BME280;29669;55.706;37.656;2022-10-12T09:31:37;100088.94;;;14.36;48.18
43814;BME280;29669;55.706;37.656;2022-10-12T09:34:27;100087.75;;;14.39;47.97
43814;BME280;29669;55.706;37.656;2022-10-12T09:37:25;100081.81;;;14.45;47.89
43814;BME280;29669;55.706;37.656;2022-10-12T09:40:24;100082.81;;;14.58;47.29
43814;BME280;29669;55.706;37.656;2022-10-12T09:43:13;100091.09;;;14.62;47.32
43814;BME280;29669;55.706;37.656;2022-10-12T09:46:04;100086.88;;;14.61;47.10
43814;BME280;29669;55.706;37.656;2022-10-12T09:48:57;100078.84;;;14.62;46.82
43814;BME280;29669;55.706;37.656;2022-10-12T09:51:45;100079.22;;;14.74;46.88
43814;BME280;29669;55.706;37.656;2022-10-12T09:54:33;100094.53;;;14.62;46.67
43814;BME280;29669;55.706;37.656;2022-10-12T09:57:29;100087.22;;;14.58;46.61
43814;BME280;29669;55.706;37.656;2022-10-12T10:00:29;100084.16;;;14.54;46.90
43814;BME280;29669;55.706;37.656;2022-10-12T10:03:23;100091.81;;;14.56;46.44
43814;BME280;29669;55.706;37.656;2022-10-12T10:06:24;100089.22;;;14.56;46.28
43814;BME280;29669;55.706;37.656;2022-10-12T10:12:27;100089.03;;;14.57;46.22
43814;BME280;29669;55.706;37.656;2022-10-12T10:15:34;100102.97;;;14.35;46.54
43814;BME280;29669;55.706;37.656;2022-10-12T10:18:31;100095.94;;;14.21;46.88
43814;BME280;29669;55.706;37.656;2022-10-12T10:24:26;100102.31;;;14.18;47.09
43814;BME280;29669;55.706;37.656;2022-10-12T10:27:38;100096.25;;;14.18;47.19
43814;BME280;29669;55.706;37.656;2022-10-12T10:30:26;100105.19;;;14.24;47.00
43814;BME280;29669;55.706;37.656;2022-10-12T10:33:32;100104.03;;;14.26;47.00
43814;BME280;29669;55.706;37.656;2022-10-12T10:36:22;100098.13;;;14.32;47.09
43814;BME280;29669;55.706;37.656;2022-10-12T10:39:26;100100.63;;;14.40;46.83
43814;BME280;29669;55.706;37.656;2022-10-12T10:42:21;100104.63;;;14.36;46.97
43814;BME280;29669;55.706;37.656;2022-10-12T10:45:21;100098.91;;;14.33;46.99
43814;BME280;29669;55.706;37.656;2022-10-12T10:48:16;100100.81;;;14.39;47.03
43814;BME280;29669;55.706;37.656;2022-10-12T10:51:06;100101.81;;;14.38;47.00
43814;BME280;29669;55.706;37.656;2022-10-12T10:53:53;100108.56;;;14.47;46.96
43814;BME280;29669;55.706;37.656;2022-10-12T10:56:43;100104.69;;;14.43;46.34
43814;BME280;29669;55.706;37.656;2022-10-12T10:59:57;100109.09;;;14.42;46.51
43814;BME280;29669;55.706;37.656;2022-10-12T11:03:10;100109.66;;;14.38;46.75
43814;BME280;29669;55.706;37.656;2022-10-12T11:09:04;100119.09;;;14.39;46.32
43814;BME280;29669;55.706;37.656;2022-10-12T11:11:57;100112.19;;;14.08;46.61
43814;BME280;29669;55.706;37.656;2022-10-12T11:14:50;100110.94;;;13.82;46.90
43814;BME280;29669;55.706;37.656;2022-10-12T11:17:45;100105.72;;;13.59;47.30
43814;BME280;29669;55.706;37.656;2022-10-12T11:20:42;100108.28;;;13.45;47.88
43814;BME280;29669;55.706;37.656;2022-10-12T11:26:30;100113.03;;;13.41;48.36
43814;BME280;29669;55.706;37.656;2022-10-12T11:29:22;100124.28;;;13.64;48.19
43814;BME280;29669;55.706;37.656;2022-10-12T11:35:56;100124.66;;;14.21;47.29
43814;BME280;29669;55.706;37.656;2022-10-12T11:38:41;100125.41;;;14.44;47.09
43814;BME280;29669;55.706;37.656;2022-10-12T11:41:38;100129.66;;;14.60;46.76
43814;BME280;29669;55.706;37.656;2022-10-12T11:44:53;100129.91;;;14.65;46.80
43814;BME280;29669;55.706;37.656;2022-10-12T11:47:42;100136.97;;;14.64;46.98
43814;BME280;29669;55.706;37.656;2022-10-12T11:56:23;100139.22;;;13.93;48.09
43814;BME280;29669;55.706;37.656;2022-10-12T11:59:19;100139.53;;;13.75;48.47
43814;BME280;29669;55.706;37.656;2022-10-12T12:02:28;100156.16;;;13.74;48.64
43814;BME280;29669;55.706;37.656;2022-10-12T12:05:21;100143.09;;;13.52;48.89
43814;BME280;29669;55.706;37.656;2022-10-12T12:11:41;100154.16;;;13.54;49.42
43814;BME280;29669;55.706;37.656;2022-10-12T12:23:40;100154.06;;;13.16;50.26
43814;BME280;29669;55.706;37.656;2022-10-12T12:26:29;100163.84;;;12.98;50.70
43814;BME280;29669;55.706;37.656;2022-10-12T12:29:26;100153.16;;;12.85;51.05
43814;BME280;29669;55.706;37.656;2022-10-12T12:32:18;100154.78;;;12.86;51.40
43814;BME280;29669;55.706;37.656;2022-10-12T12:35:27;100165.22;;;12.86;51.18
43814;BME280;29669;55.706;37.656;2022-10-12T12:38:21;100158.56;;;12.76;51.44
43814;BME280;29669;55.706;37.656;2022-10-12T12:41:18;100158.72;;;12.74;51.56
43814;BME280;29669;55.706;37.656;2022-10-12T12:47:35;100170.69;;;12.45;51.94
43814;BME280;29669;55.706;37.656;2022-10-12T12:50:37;100176.38;;;12.24;52.37
43814;BME280;29669;55.706;37.656;2022-10-12T12:53:29;100192.97;;;12.07;52.73
43814;BME280;29669;55.706;37.656;2022-10-12T12:56:40;100174.72;;;11.83;53.22
43814;BME280;29669;55.706;37.656;2022-10-12T13:06:21;100184.28;;;11.66;54.05
43814;BME280;29669;55.706;37.656;2022-10-12T13:15:16;100186.00;;;11.50;54.44
43814;BME280;29669;55.706;37.656;2022-10-12T13:24:44;100198.97;;;11.33;nan
43814;BME280;29669;55.706;37.656;2022-10-12T13:30:33;100195.13;;;11.12;nan
43814;BME280;29669;55.706;37.656;2022-10-12T13:33:46;100207.31;;;11.11;nan
43814;BME280;29669;55.706;37.656;2022-10-12T13:39:44;100206.31;;;11.04;nan
43814;BME280;29669;55.706;37.656;2022-10-12T13:42:33;100204.81;;;11.02;nan
43814;BME280;29669;55.706;37.656;2022-10-12T13:45:22;100214.22;;;10.95;nan
43814;BME280;29669;55.706;37.656;2022-10-12T13:48:16;100209.44;;;10.82;nan
43814;BME280;29669;55.706;37.656;2022-10-12T13:51:23;100218.03;;;10.57;nan
43814;BME280;29669;55.706;37.656;2022-10-12T13:57:11;100229.03;;;10.33;nan
43814;BME280;29669;55.706;37.656;2022-10-12T14:03:03;100228.09;;;10.17;nan
43814;BME280;29669;55.706;37.656;2022-10-12T14:05:52;100230.88;;;10.06;nan
43814;BME280;29669;55.706;37.656;2022-10-12T14:08:43;100230.69;;;9.90;nan
43814;BME280;29669;55.706;37.656;2022-10-12T14:11:31;100226.13;;;9.84;nan
43814;BME280;29669;55.706;37.656;2022-10-12T14:14:27;100230.66;;;9.82;nan
43814;BME280;29669;55.706;37.656;2022-10-12T14:17:19;100233.75;;;9.85;nan
43814;BME280;29669;55.706;37.656;2022-10-12T14:20:30;100236.44;;;9.93;nan
43814;BME280;29669;55.706;37.656;2022-10-12T14:23:22;100237.78;;;9.97;nan
43814;BME280;29669;55.706;37.656;2022-10-12T14:26:25;100232.50;;;10.07;nan
43814;BME280;29669;55.706;37.656;2022-10-12T14:29:42;100240.84;;;10.10;nan
43814;BME280;29669;55.706;37.656;2022-10-12T14:32:38;100242.63;;;10.10;nan
43814;BME280;29669;55.706;37.656;2022-10-12T14:35:28;100235.66;;;10.10;nan
43814;BME280;29669;55.706;37.656;2022-10-12T14:44:28;100245.22;;;10.10;nan
43814;BME280;29669;55.706;37.656;2022-10-12T14:47:37;100250.00;;;10.05;nan
43814;BME280;29669;55.706;37.656;2022-10-12T14:50:27;100249.75;;;9.98;nan
43814;BME280;29669;55.706;37.656;2022-10-12T14:53:16;100260.28;;;9.97;nan
43814;BME280;29669;55.706;37.656;2022-10-12T14:56:04;100250.06;;;9.95;nan
43814;BME280;29669;55.706;37.656;2022-10-12T14:58:52;100248.72;;;9.91;nan
43814;BME280;29669;55.706;37.656;2022-10-12T15:01:40;100251.75;;;9.87;nan
43814;BME280;29669;55.706;37.656;2022-10-12T15:04:31;100247.66;;;9.84;nan
43814;BME280;29669;55.706;37.656;2022-10-12T15:07:25;100256.84;;;9.79;nan
43814;BME280;29669;55.706;37.656;2022-10-12T15:10:14;100263.28;;;9.75;nan
43814;BME280;29669;55.706;37.656;2022-10-12T15:13:02;100265.81;;;9.67;nan
43814;BME280;29669;55.706;37.656;2022-10-12T15:15:51;100260.81;;;9.56;nan
43814;BME280;29669;55.706;37.656;2022-10-12T15:18:39;100266.31;;;9.43;nan
43814;BME280;29669;55.706;37.656;2022-10-12T15:21:27;100268.25;;;9.31;nan
43814;BME280;29669;55.706;37.656;2022-10-12T15:24:19;100261.34;;;9.22;nan
43814;BME280;29669;55.706;37.656;2022-10-12T15:27:07;100275.84;;;9.15;nan
43814;BME280;29669;55.706;37.656;2022-10-12T15:29:55;100271.50;;;9.06;nan
43814;BME280;29669;55.706;37.656;2022-10-12T15:32:43;100279.00;;;9.00;nan
43814;BME280;29669;55.706;37.656;2022-10-12T15:35:34;100283.28;;;8.91;nan
43814;BME280;29669;55.706;37.656;2022-10-12T15:38:22;100287.88;;;8.88;nan
43814;BME280;29669;55.706;37.656;2022-10-12T15:41:16;100292.66;;;8.83;nan
43814;BME280;29669;55.706;37.656;2022-10-12T15:44:05;100299.59;;;8.82;nan
43814;BME280;29669;55.706;37.656;2022-10-12T15:46:53;100300.03;;;8.78;nan
43814;BME280;29669;55.706;37.656;2022-10-12T15:49:41;100301.28;;;8.74;nan
43814;BME280;29669;55.706;37.656;2022-10-12T15:52:29;100303.56;;;8.67;nan
43814;BME280;29669;55.706;37.656;2022-10-12T15:55:20;100305.47;;;8.65;nan
43814;BME280;29669;55.706;37.656;2022-10-12T15:58:08;100307.00;;;8.58;nan
43814;BME280;29669;55.706;37.656;2022-10-12T16:00:56;100308.50;;;8.51;nan
43814;BME280;29669;55.706;37.656;2022-10-12T16:03:45;100302.50;;;8.41;nan
43814;BME280;29669;55.706;37.656;2022-10-12T16:06:33;100296.25;;;8.34;nan
43814;BME280;29669;55.706;37.656;2022-10-12T16:09:21;100306.84;;;8.31;nan
43814;BME280;29669;55.706;37.656;2022-10-12T16:12:09;100309.72;;;8.28;nan
43814;BME280;29669;55.706;37.656;2022-10-12T16:14:57;100309.72;;;8.28;nan
43814;BME280;29669;55.706;37.656;2022-10-12T16:17:45;100320.06;;;8.28;nan
43814;BME280;29669;55.706;37.656;2022-10-12T16:20:35;100323.00;;;8.23;nan
43814;BME280;29669;55.706;37.656;2022-10-12T16:23:27;100322.47;;;8.20;nan
43814;BME280;29669;55.706;37.656;2022-10-12T16:26:16;100327.09;;;8.16;nan
43814;BME280;29669;55.706;37.656;2022-10-12T16:29:04;100336.88;;;8.13;nan
43814;BME280;29669;55.706;37.656;2022-10-12T16:31:52;100326.13;;;8.08;nan
43814;BME280;29669;55.706;37.656;2022-10-12T16:34:39;100328.03;;;8.06;nan